Time;durP1;ratioP1;P1;durP2;ratioP2;P2;SDS_P1;SDS_P2;PMS_P1;PMS_P2;Temp;Humidity;BMP_temperature;BMP_pressure;BME280_temperature;BME280_humidity;BME280_pressure;Samples;Min_cycle;Max_cycle;Signal;HPM_P1;HPM_P2
2023/05/18 00:01:58;;;;;;;5.97;1.67;;;11.20;99.90;;;;;;5109961;28;20199;-74
2023/05/18 00:04:24;;;;;;;6.63;1.50;;;11.20;99.90;;;;;;5110438;28;20296;-74
2023/05/18 00:06:57;;;;;;;5.70;1.30;;;11.10;99.90;;;;;;5104307;28;20210;-74
2023/05/18 00:09:25;;;;;;;4.77;1.40;;;11.10;99.90;;;;;;5102560;28;20218;-74
2023/05/18 00:11:52;;;;;;;5.30;1.67;;;11.00;99.90;;;;;;5097021;28;20530;-74
2023/05/18 00:14:19;;;;;;;5.93;1.40;;;10.90;99.90;;;;;;5110076;28;20246;-73
2023/05/18 00:16:45;;;;;;;8.00;1.80;;;10.90;99.90;;;;;;5105389;28;20195;-74
2023/05/18 00:19:13;;;;;;;6.47;1.60;;;10.90;99.90;;;;;;5107436;28;20212;-74
2023/05/18 00:21:40;;;;;;;7.83;1.40;;;10.90;99.90;;;;;;5098767;28;20214;-73
2023/05/18 00:24:07;;;;;;;5.03;1.37;;;10.90;99.90;;;;;;5104939;28;20174;-74
2023/05/18 00:26:32;;;;;;;5.07;1.13;;;10.90;99.90;;;;;;5102759;28;20615;-73
2023/05/18 00:28:58;;;;;;;5.67;1.40;;;10.90;99.90;;;;;;5095393;23;20234;-76
2023/05/18 00:31:24;;;;;;;7.43;1.80;;;10.90;99.90;;;;;;5048897;28;20239;-76
2023/05/18 00:33:49;;;;;;;5.03;1.90;;;10.90;99.90;;;;;;5061889;28;20290;-76
2023/05/18 00:36:15;;;;;;;8.73;1.87;;;10.90;99.90;;;;;;5065717;28;20269;-76
2023/05/18 00:38:40;;;;;;;11.00;1.83;;;10.90;99.90;;;;;;5052023;28;20251;-76
2023/05/18 00:41:06;;;;;;;3.53;1.57;;;10.80;99.90;;;;;;5025983;28;20590;-76
2023/05/18 00:43:31;;;;;;;6.93;1.43;;;10.80;99.90;;;;;;5048370;28;20214;-76
2023/05/18 00:45:57;;;;;;;9.07;2.00;;;10.70;99.90;;;;;;5033594;28;20302;-76
2023/05/18 00:48:23;;;;;;;3.80;1.27;;;10.70;99.90;;;;;;5048108;28;20399;-76
2023/05/18 00:50:48;;;;;;;8.27;1.77;;;10.60;99.90;;;;;;5045632;28;20250;-76
2023/05/18 00:53:14;;;;;;;4.90;1.57;;;10.60;99.90;;;;;;5046385;28;20203;-77
2023/05/18 00:55:40;;;;;;;4.47;1.00;;;10.60;99.90;;;;;;5042675;28;20204;-76
2023/05/18 00:58:05;;;;;;;4.57;1.40;;;10.60;99.90;;;;;;5039993;28;20652;-76
2023/05/18 01:00:32;;;;;;;7.13;1.73;;;10.50;99.90;;;;;;5041058;28;20191;-76
2023/05/18 01:02:58;;;;;;;7.97;1.30;;;10.60;99.90;;;;;;5029988;28;20206;-76
2023/05/18 01:05:24;;;;;;;8.20;1.30;;;10.60;99.90;;;;;;5041123;28;20293;-76
2023/05/18 01:07:49;;;;;;;6.80;1.67;;;10.60;99.90;;;;;;5040328;28;20709;-76
2023/05/18 01:10:18;;;;;;;5.53;1.40;;;10.60;99.90;;;;;;5051310;28;20673;-78
2023/05/18 01:12:58;;;;;;;6.60;1.27;;;10.60;99.90;;;;;;5030334;28;20798;-76
2023/05/18 01:15:36;;;;;;;4.27;1.40;;;10.60;99.90;;;;;;5050500;28;20203;-77
2023/05/18 01:18:15;;;;;;;8.32;2.30;;;10.50;99.90;;;;;;5027927;28;20935;-78
2023/05/18 01:21:12;;;;;;;5.83;2.10;;;10.50;99.90;;;;;;5049152;28;20581;-76
2023/05/18 01:24:16;;;;;;;5.50;1.40;;;10.60;99.90;;;;;;5048126;28;20246;-76
2023/05/18 01:26:45;;;;;;;3.83;1.47;;;10.60;99.90;;;;;;5026117;28;20203;-76
2023/05/18 01:29:13;;;;;;;6.53;1.37;;;10.60;99.90;;;;;;5044983;28;20265;-76
2023/05/18 01:31:39;;;;;;;7.13;1.50;;;10.60;99.90;;;;;;5031170;28;20444;-76
2023/05/18 01:34:05;;;;;;;7.87;2.30;;;10.50;99.90;;;;;;5043641;28;20299;-76
2023/05/18 01:36:31;;;;;;;5.70;1.47;;;10.50;99.90;;;;;;5029429;28;20273;-76
2023/05/18 01:39:00;;;;;;;7.17;1.50;;;10.40;99.90;;;;;;5043361;28;20200;-76
2023/05/18 01:41:28;;;;;;;6.53;1.60;;;10.50;99.90;;;;;;5042825;28;20286;-76
2023/05/18 01:44:14;;;;;;;7.00;1.87;;;10.40;99.90;;;;;;5040811;28;20204;-76
2023/05/18 01:46:53;;;;;;;6.13;1.60;;;10.50;99.90;;;;;;5032952;28;20203;-76
2023/05/18 01:49:31;;;;;;;5.87;1.17;;;10.40;99.90;;;;;;5045804;28;20208;-76
2023/05/18 01:52:02;;;;;;;3.93;1.30;;;10.40;99.90;;;;;;5048761;28;20585;-77
2023/05/18 01:54:30;;;;;;;4.90;1.40;;;10.50;99.90;;;;;;5032641;28;20708;-76
2023/05/18 01:56:57;;;;;;;6.50;1.67;;;10.40;99.90;;;;;;5048212;28;20685;-76
2023/05/18 01:59:23;;;;;;;4.53;1.53;;;10.30;99.90;;;;;;5045287;28;20207;-76
2023/05/18 02:01:49;;;;;;;4.70;1.63;;;10.30;99.90;;;;;;5045323;28;20222;-76
2023/05/18 02:04:14;;;;;;;8.07;1.37;;;10.30;99.90;;;;;;5047085;28;20205;-76
2023/05/18 02:06:40;;;;;;;5.37;1.10;;;10.30;99.90;;;;;;5043010;28;20203;-76
2023/05/18 02:09:06;;;;;;;5.70;1.20;;;10.30;99.90;;;;;;5027545;28;20207;-76
2023/05/18 02:11:31;;;;;;;6.07;1.57;;;10.30;99.90;;;;;;5026549;28;20682;-76
2023/05/18 02:13:57;;;;;;;5.43;1.37;;;10.20;99.90;;;;;;5042430;28;20734;-77
2023/05/18 02:16:22;;;;;;;8.13;1.70;;;10.20;99.90;;;;;;5044446;28;20587;-76
2023/05/18 02:18:48;;;;;;;5.83;1.60;;;10.30;99.90;;;;;;5040291;28;20215;-76
2023/05/18 02:21:14;;;;;;;4.43;1.20;;;10.30;99.90;;;;;;5025948;28;20259;-77
2023/05/18 02:23:40;;;;;;;9.00;1.40;;;10.20;99.90;;;;;;5038774;28;20204;-76
2023/05/18 02:26:06;;;;;;;8.80;2.57;;;10.20;99.90;;;;;;5026585;28;20207;-78
2023/05/18 02:28:32;;;;;;;4.10;1.50;;;10.20;99.90;;;;;;5046908;28;20222;-76
2023/05/18 02:31:05;;;;;;;5.03;1.67;;;10.20;99.90;;;;;;5030683;28;20235;-76
2023/05/18 02:33:35;;;;;;;6.63;1.57;;;10.20;99.90;;;;;;5048115;28;20176;-76
2023/05/18 02:36:02;;;;;;;7.83;1.90;;;10.10;99.90;;;;;;5026796;28;20358;-76
2023/05/18 02:38:27;;;;;;;2.20;1.67;;;10.10;99.90;;;;;;5031283;28;20808;-76
2023/05/18 02:40:53;;;;;;;8.80;1.33;;;10.10;99.90;;;;;;5045252;28;20203;-76
2023/05/18 02:43:18;;;;;;;8.83;1.97;;;10.10;99.90;;;;;;5027873;28;20208;-76
2023/05/18 02:45:44;;;;;;;6.27;1.30;;;10.10;99.90;;;;;;5044613;28;20204;-76
2023/05/18 02:48:10;;;;;;;5.33;1.33;;;10.00;99.90;;;;;;5045027;28;20198;-76
2023/05/18 02:50:35;;;;;;;11.63;2.07;;;10.10;99.90;;;;;;5043765;28;20219;-76
2023/05/18 02:53:01;;;;;;;4.80;1.43;;;10.10;99.90;;;;;;5041456;28;20586;-76
2023/05/18 02:55:27;;;;;;;15.17;1.93;;;10.10;99.90;;;;;;5043773;28;20207;-76
2023/05/18 02:57:55;;;;;;;11.53;1.93;;;10.00;99.90;;;;;;5042794;28;20222;-76
2023/05/18 03:00:22;;;;;;;7.17;1.57;;;10.00;99.90;;;;;;5028369;28;20187;-77
2023/05/18 03:02:49;;;;;;;6.37;1.40;;;10.00;99.90;;;;;;5041831;28;20251;-77
2023/05/18 03:05:15;;;;;;;5.63;1.87;;;9.90;99.90;;;;;;5045786;28;20606;-76
2023/05/18 03:07:44;;;;;;;6.37;1.57;;;9.90;99.90;;;;;;5053084;28;20215;-77
2023/05/18 03:10:10;;;;;;;6.27;1.40;;;9.90;99.90;;;;;;5052296;28;20211;-77
2023/05/18 03:12:36;;;;;;;11.03;1.63;;;9.90;99.90;;;;;;5051658;28;20180;-75
2023/05/18 03:15:02;;;;;;;7.17;1.70;;;9.90;99.90;;;;;;5034110;28;20199;-77
2023/05/18 03:17:27;;;;;;;8.03;1.90;;;9.90;99.90;;;;;;5051238;28;20212;-78
2023/05/18 03:19:53;;;;;;;8.37;1.70;;;10.00;99.90;;;;;;5034248;28;20665;-76
2023/05/18 03:22:18;;;;;;;10.47;1.70;;;10.00;99.90;;;;;;5049049;28;20622;-78
2023/05/18 03:24:44;;;;;;;12.07;1.90;;;10.10;99.90;;;;;;5041805;28;20212;-76
2023/05/18 03:27:11;;;;;;;8.00;1.40;;;10.10;99.90;;;;;;5035033;28;20219;-76
2023/05/18 03:29:37;;;;;;;7.37;1.83;;;10.10;99.90;;;;;;5049939;28;20554;-76
2023/05/18 03:32:03;;;;;;;7.93;1.77;;;10.10;99.90;;;;;;5044980;28;20215;-76
2023/05/18 03:34:28;;;;;;;3.93;1.40;;;10.10;99.90;;;;;;5040262;28;20200;-77
2023/05/18 03:36:54;;;;;;;9.37;1.43;;;10.30;99.90;;;;;;5049431;28;20213;-77
2023/05/18 03:39:20;;;;;;;5.93;2.10;;;10.30;99.90;;;;;;5035092;28;20557;-77
2023/05/18 03:41:46;;;;;;;9.63;2.00;;;10.40;99.90;;;;;;5040800;28;20555;-77
2023/05/18 03:44:11;;;;;;;8.47;1.90;;;10.80;99.90;;;;;;5043774;28;20216;-77
2023/05/18 03:46:37;;;;;;;6.93;1.77;;;11.10;99.90;;;;;;5052458;28;20215;-77
2023/05/18 03:49:03;;;;;;;9.13;1.97;;;11.60;99.90;;;;;;5033540;28;20220;-77
2023/05/18 03:51:30;;;;;;;8.13;2.20;;;11.90;99.90;;;;;;5037802;28;20262;-77
2023/05/18 03:53:56;;;;;;;5.77;1.40;;;12.10;99.90;;;;;;5049555;28;20262;-77
2023/05/18 03:56:22;;;;;;;6.47;2.47;;;12.50;99.90;;;;;;5030595;28;20711;-77
2023/05/18 03:58:47;;;;;;;7.30;2.60;;;12.80;99.90;;;;;;5029595;28;20415;-77
2023/05/18 04:01:17;;;;;;;7.88;2.50;;;13.30;99.90;;;;;;5032381;28;20713;-77
2023/05/18 04:03:44;;;;;;;7.57;2.40;;;13.60;99.90;;;;;;5047025;28;20690;-77
2023/05/18 04:06:09;;;;;;;6.55;2.63;;;14.20;99.90;;;;;;5045895;28;20869;-77
2023/05/18 04:08:35;;;;;;;4.40;1.90;;;14.80;99.90;;;;;;5039420;28;20291;-77
2023/05/18 04:11:01;;;;;;;7.82;2.38;;;15.30;99.90;;;;;;5046467;28;20213;-77
2023/05/18 04:13:27;;;;;;;7.80;2.08;;;15.60;99.90;;;;;;5027387;28;20204;-77
2023/05/18 04:15:52;;;;;;;6.10;2.35;;;16.10;99.90;;;;;;5042556;28;20205;-77
2023/05/18 04:18:18;;;;;;;7.35;2.90;;;16.50;99.90;;;;;;5027012;28;20663;-77
2023/05/18 04:20:44;;;;;;;5.78;1.92;;;16.60;99.90;;;;;;5042708;28;20195;-77
2023/05/18 04:23:11;;;;;;;10.55;2.10;;;16.50;99.90;;;;;;5044739;28;20250;-76
2023/05/18 04:25:38;;;;;;;6.43;2.50;;;16.30;99.90;;;;;;5051603;28;20231;-75
2023/05/18 04:28:04;;;;;;;5.68;2.50;;;16.40;99.90;;;;;;5037851;28;20295;-77
2023/05/18 04:30:31;;;;;;;5.85;2.55;;;16.60;99.90;;;;;;5050421;28;20678;-76
2023/05/18 04:32:58;;;;;;;7.15;2.47;;;16.50;99.90;;;;;;5048074;28;20186;-76
2023/05/18 04:35:25;;;;;;;5.28;2.00;;;16.20;99.90;;;;;;5031621;28;20585;-77
2023/05/18 04:37:51;;;;;;;5.82;2.30;;;16.20;99.90;;;;;;5044873;28;20231;-76
2023/05/18 04:40:17;;;;;;;6.47;2.42;;;16.60;99.90;;;;;;5040985;28;20232;-75
2023/05/18 04:42:46;;;;;;;9.25;2.58;;;16.80;99.90;;;;;;5042608;28;20287;-77
2023/05/18 04:45:15;;;;;;;5.72;2.70;;;17.40;99.90;;;;;;5023289;28;20180;-76
2023/05/18 04:47:41;;;;;;;6.57;2.63;;;18.20;99.90;;;;;;5042795;28;20632;-76
2023/05/18 04:50:07;;;;;;;5.50;2.38;;;18.80;99.90;;;;;;5030039;28;20227;-76
2023/05/18 04:52:35;;;;;;;7.32;2.30;;;18.90;99.90;;;;;;5025117;28;20203;-75
2023/05/18 04:55:01;;;;;;;8.27;2.40;;;19.10;99.90;;;;;;5039925;28;20212;-76
2023/05/18 04:57:27;;;;;;;5.68;2.25;;;19.40;99.90;;;;;;5043822;28;20195;-77
2023/05/18 04:59:53;;;;;;;7.10;2.22;;;19.60;99.90;;;;;;5040680;28;20192;-76
2023/05/18 05:02:19;;;;;;;7.40;2.50;;;19.40;99.90;;;;;;5021241;28;20208;-77
2023/05/18 05:04:45;;;;;;;7.72;2.30;;;19.40;99.90;;;;;;5046278;28;20206;-76
2023/05/18 05:07:11;;;;;;;8.40;2.55;;;19.60;99.90;;;;;;5024560;28;20230;-77
2023/05/18 05:09:36;;;;;;;6.75;2.10;;;19.90;99.90;;;;;;5042184;28;20311;-76
2023/05/18 05:12:02;;;;;;;7.88;2.47;;;20.20;99.90;;;;;;5033275;28;20243;-76
2023/05/18 05:14:28;;;;;;;7.65;2.15;;;20.40;99.90;;;;;;5023238;28;20208;-76
2023/05/18 05:16:54;;;;;;;7.18;2.00;;;20.70;99.90;;;;;;5023774;28;20207;-76
2023/05/18 05:19:19;;;;;;;10.90;2.35;;;20.60;99.90;;;;;;5042561;28;20208;-76
2023/05/18 05:21:45;;;;;;;9.73;2.38;;;20.70;99.90;;;;;;5041931;28;20210;-77
2023/05/18 05:24:11;;;;;;;7.60;2.13;;;20.80;99.90;;;;;;5038614;28;20246;-77
2023/05/18 05:26:36;;;;;;;5.82;1.90;;;21.30;99.90;;;;;;5043052;28;20230;-77
2023/05/18 05:29:02;;;;;;;7.90;2.40;;;21.70;99.90;;;;;;5029535;28;20775;-76
2023/05/18 05:31:28;;;;;;;11.20;2.30;;;22.10;99.90;;;;;;5042188;28;20282;-77
2023/05/18 05:33:53;;;;;;;7.50;2.15;;;22.20;99.50;;;;;;5039724;28;20216;-74
2023/05/18 05:36:19;;;;;;;4.80;2.08;;;23.00;98.30;;;;;;5027531;28;20179;-76
2023/05/18 05:38:44;;;;;;;6.28;2.05;;;23.10;97.20;;;;;;5044641;28;20196;-76
2023/05/18 05:41:10;;;;;;;6.40;2.47;;;22.60;97.50;;;;;;5038969;28;20212;-76
2023/05/18 05:43:35;;;;;;;9.90;2.53;;;22.50;97.10;;;;;;5040321;28;20211;-75
2023/05/18 05:46:01;;;;;;;8.13;2.42;;;22.50;97.10;;;;;;5041219;28;20227;-75
2023/05/18 05:48:27;;;;;;;7.93;2.08;;;22.70;96.90;;;;;;5020879;28;20192;-75
2023/05/18 05:50:52;;;;;;;6.40;2.45;;;22.60;96.40;;;;;;5041503;28;20650;-75
2023/05/18 05:53:19;;;;;;;5.53;2.13;;;22.60;95.90;;;;;;5038280;28;20262;-75
2023/05/18 05:55:45;;;;;;;7.55;2.60;;;22.50;95.50;;;;;;5042693;28;20285;-75
2023/05/18 05:58:10;;;;;;;8.55;2.53;;;22.80;95.50;;;;;;5038568;28;20957;-75
2023/05/18 06:00:36;;;;;;;8.18;2.40;;;23.20;94.60;;;;;;5021140;28;20212;-76
2023/05/18 06:03:02;;;;;;;8.00;2.65;;;22.90;94.40;;;;;;5040548;28;20560;-75
2023/05/18 06:05:28;;;;;;;5.30;1.90;;;23.20;94.40;;;;;;5041194;28;20207;-75
2023/05/18 06:07:54;;;;;;;6.95;2.28;;;23.60;94.10;;;;;;5039398;28;20212;-75
2023/05/18 06:10:20;;;;;;;4.75;2.00;;;24.00;92.90;;;;;;5037740;28;20810;-76
2023/05/18 06:12:45;;;;;;;7.65;2.38;;;24.30;91.80;;;;;;5039120;28;20243;-75
2023/05/18 06:15:11;;;;;;;7.75;2.50;;;24.70;91.10;;;;;;5042195;28;20258;-75
2023/05/18 06:17:37;;;;;;;7.78;2.50;;;24.70;90.60;;;;;;5040981;28;20204;-75
2023/05/18 06:20:06;;;;;;;12.90;2.58;;;24.90;89.30;;;;;;5038361;28;20208;-75
2023/05/18 06:22:31;;;;;;;8.48;2.45;;;25.30;88.90;;;;;;5038619;28;20216;-75
2023/05/18 06:24:57;;;;;;;9.05;2.38;;;25.50;86.30;;;;;;5041244;28;20273;-76
2023/05/18 06:27:23;;;;;;;7.68;2.42;;;25.50;86.00;;;;;;5037772;28;20243;-75
2023/05/18 06:29:48;;;;;;;5.65;2.00;;;25.70;85.20;;;;;;5030087;28;20682;-75
2023/05/18 06:32:14;;;;;;;8.75;2.53;;;25.10;85.00;;;;;;5038831;28;20630;-75
2023/05/18 06:34:41;;;;;;;5.45;1.95;;;25.10;83.00;;;;;;5041057;28;20199;-75
2023/05/18 06:37:06;;;;;;;7.78;2.42;;;24.80;84.30;;;;;;5041769;28;20208;-75
2023/05/18 06:39:32;;;;;;;8.20;2.85;;;25.50;85.40;;;;;;5022897;28;20260;-76
2023/05/18 06:41:58;;;;;;;8.27;2.20;;;25.90;83.40;;;;;;5039792;28;20198;-75
2023/05/18 06:44:23;;;;;;;6.40;2.20;;;26.00;82.40;;;;;;5040800;28;20212;-73
2023/05/18 06:46:49;;;;;;;8.30;2.47;;;25.10;81.90;;;;;;5037145;28;20212;-73
2023/05/18 06:49:15;;;;;;;10.93;3.03;;;25.80;82.90;;;;;;5041425;28;20224;-73
2023/05/18 06:51:42;;;;;;;9.27;3.17;;;25.30;82.30;;;;;;5040556;28;20766;-73
2023/05/18 06:54:08;;;;;;;9.55;3.35;;;23.30;84.30;;;;;;5039545;28;20615;-72
2023/05/18 06:56:33;;;;;;;8.32;3.05;;;23.40;85.60;;;;;;5041776;28;20287;-73
2023/05/18 06:58:59;;;;;;;9.93;2.88;;;23.70;87.30;;;;;;5045749;28;20268;-73
2023/05/18 07:01:24;;;;;;;9.15;2.63;;;22.60;87.40;;;;;;5041096;28;20208;-73
2023/05/18 07:03:50;;;;;;;13.70;4.32;;;22.60;90.00;;;;;;5044568;28;20663;-73
2023/05/18 07:06:16;;;;;;;10.43;3.15;;;22.90;89.50;;;;;;5037501;28;20183;-73
2023/05/18 07:08:43;;;;;;;5.10;2.35;;;23.90;86.80;;;;;;5047447;28;20214;-73
2023/05/18 07:11:09;;;;;;;7.03;2.47;;;23.30;86.30;;;;;;5041454;28;20211;-73
2023/05/18 07:13:34;;;;;;;8.32;2.47;;;24.10;87.10;;;;;;5027539;28;20200;-72
2023/05/18 07:16:00;;;;;;;7.30;2.58;;;24.30;85.20;;;;;;5041864;28;20294;-73
2023/05/18 07:18:26;;;;;;;6.55;2.10;;;24.70;84.60;;;;;;5039001;28;20192;-73
2023/05/18 07:20:51;;;;;;;5.63;2.40;;;24.80;84.60;;;;;;5040950;28;20221;-73
2023/05/18 07:23:17;;;;;;;6.85;2.00;;;25.40;83.60;;;;;;5028521;28;20212;-72
2023/05/18 07:25:43;;;;;;;9.02;2.35;;;26.20;82.60;;;;;;5040922;28;20219;-73
2023/05/18 07:28:09;;;;;;;5.95;2.10;;;25.70;81.80;;;;;;5037450;28;20223;-73
2023/05/18 07:30:35;;;;;;;8.20;2.42;;;25.90;79.60;;;;;;5035818;28;20203;-73
2023/05/18 07:33:00;;;;;;;9.50;2.17;;;25.40;81.10;;;;;;5041771;28;20181;-73
2023/05/18 07:35:26;;;;;;;5.32;2.20;;;25.50;80.90;;;;;;5039982;28;20214;-73
2023/05/18 07:37:52;;;;;;;9.55;2.40;;;25.90;81.40;;;;;;5044082;28;20208;-73
2023/05/18 07:40:19;;;;;;;6.13;1.70;;;26.20;80.40;;;;;;5038780;28;20203;-72
2023/05/18 07:42:45;;;;;;;5.28;2.03;;;26.00;79.10;;;;;;5042457;28;20302;-73
2023/05/18 07:45:11;;;;;;;5.03;2.03;;;25.80;79.50;;;;;;5040472;28;20180;-73
2023/05/18 07:47:37;;;;;;;7.00;2.25;;;25.90;79.30;;;;;;5026164;28;20204;-73
2023/05/18 07:50:03;;;;;;;6.50;2.17;;;26.40;78.90;;;;;;5043644;28;20388;-73
2023/05/18 07:52:29;;;;;;;4.55;1.80;;;25.90;78.00;;;;;;5046016;28;20196;-72
2023/05/18 07:54:58;;;;;;;5.00;1.92;;;25.60;77.00;;;;;;5043835;28;20211;-73
2023/05/18 07:57:24;;;;;;;6.43;2.00;;;25.30;77.70;;;;;;5046893;28;20192;-73
2023/05/18 07:59:50;;;;;;;7.50;2.38;;;25.80;77.60;;;;;;5044661;28;20168;-73
2023/05/18 08:02:18;;;;;;;6.70;2.40;;;25.60;77.20;;;;;;5030414;28;20637;-73
2023/05/18 08:04:44;;;;;;;7.35;3.13;;;24.20;77.60;;;;;;5045238;28;20234;-73
2023/05/18 08:07:11;;;;;;;7.50;2.05;;;23.50;79.00;;;;;;5042762;28;20215;-72
2023/05/18 08:09:37;;;;;;;7.82;2.25;;;22.20;81.00;;;;;;5027190;28;20223;-73
2023/05/18 08:12:04;;;;;;;8.85;2.25;;;20.60;84.20;;;;;;5041170;28;20652;-72
2023/05/18 08:14:29;;;;;;;4.50;2.08;;;19.80;87.30;;;;;;5040504;28;20204;-71
2023/05/18 08:16:55;;;;;;;5.65;1.88;;;19.30;88.80;;;;;;5047680;28;20203;-72
2023/05/18 08:19:20;;;;;;;7.60;2.67;;;18.70;90.80;;;;;;5028068;28;20219;-72
2023/05/18 08:21:46;;;;;;;6.38;2.05;;;18.30;91.80;;;;;;5028005;28;20824;-75
2023/05/18 08:24:12;;;;;;;6.20;2.00;;;18.00;92.30;;;;;;5042515;28;20180;-72
2023/05/18 08:26:37;;;;;;;6.30;1.92;;;18.10;92.40;;;;;;5026916;28;20203;-72
2023/05/18 08:29:09;;;;;;;4.35;1.85;;;18.70;91.70;;;;;;5042744;28;20220;-73
2023/05/18 08:31:39;;;;;;;5.72;2.10;;;18.60;91.60;;;;;;5041542;28;20197;-72
2023/05/18 08:34:06;;;;;;;4.50;1.80;;;19.40;91.50;;;;;;5042083;28;20208;-73
2023/05/18 08:36:34;;;;;;;3.85;1.60;;;20.00;91.40;;;;;;5030177;28;20182;-73
2023/05/18 08:39:01;;;;;;;7.43;2.15;;;20.10;91.70;;;;;;5042760;28;20208;-73
2023/05/18 08:41:57;;;;;;;4.90;1.85;;;19.10;92.20;;;;;;5042180;28;20699;-73
2023/05/18 08:44:28;;;;;;;7.05;1.83;;;18.70;92.60;;;;;;5039937;28;20717;-73
2023/05/18 08:46:55;;;;;;;7.15;2.35;;;18.50;93.30;;;;;;5042827;28;20210;-72
2023/05/18 08:49:21;;;;;;;9.75;2.38;;;19.00;93.20;;;;;;5041278;28;20223;-73
2023/05/18 08:51:54;;;;;;;4.65;2.22;;;19.30;93.30;;;;;;5038991;28;20212;-73
2023/05/18 08:54:21;;;;;;;6.32;2.20;;;19.60;92.40;;;;;;5046983;28;20170;-73
2023/05/18 08:56:48;;;;;;;5.38;2.33;;;19.40;92.20;;;;;;5027256;28;20173;-73
2023/05/18 08:59:22;;;;;;;6.50;2.00;;;19.30;92.40;;;;;;5042210;28;20386;-73
2023/05/18 09:01:48;;;;;;;6.00;2.03;;;19.60;92.40;;;;;;5046217;28;20297;-73
2023/05/18 09:04:15;;;;;;;6.55;2.00;;;19.20;92.50;;;;;;5043876;28;20769;-73
2023/05/18 09:06:41;;;;;;;6.53;2.08;;;18.90;92.20;;;;;;5024308;28;20215;-72
2023/05/18 09:09:09;;;;;;;4.35;2.03;;;18.00;93.50;;;;;;5046360;28;20195;-73
2023/05/18 09:11:35;;;;;;;7.63;2.20;;;18.30;94.00;;;;;;5038647;28;20635;-73
2023/05/18 09:14:01;;;;;;;5.95;2.22;;;18.10;94.60;;;;;;5042105;28;20211;-73
2023/05/18 09:16:27;;;;;;;5.40;2.05;;;17.50;95.10;;;;;;5030494;28;20211;-73
2023/05/18 09:18:53;;;;;;;7.45;2.45;;;17.10;96.00;;;;;;5042336;28;20207;-73
2023/05/18 09:21:19;;;;;;;6.70;2.17;;;17.40;95.90;;;;;;5040925;28;20202;-73
2023/05/18 09:23:46;;;;;;;6.63;2.10;;;17.40;96.30;;;;;;5042977;28;20176;-73
2023/05/18 09:26:12;;;;;;;6.53;2.90;;;17.30;96.30;;;;;;5044023;28;20277;-71
2023/05/18 09:28:38;;;;;;;7.03;3.05;;;17.40;96.40;;;;;;5042801;28;20707;-73
2023/05/18 09:31:07;;;;;;;5.97;1.63;;;17.50;96.60;;;;;;5045051;28;20302;-73
2023/05/18 09:33:35;;;;;;;8.02;2.90;;;17.50;96.70;;;;;;5025343;28;20206;-73
2023/05/18 09:36:04;;;;;;;4.68;2.08;;;17.40;96.90;;;;;;5044971;28;20176;-73
2023/05/18 09:38:29;;;;;;;6.80;2.08;;;17.70;96.80;;;;;;5035103;28;20204;-71
2023/05/18 09:40:55;;;;;;;7.10;2.20;;;17.80;96.50;;;;;;5045294;28;20203;-73
2023/05/18 09:43:21;;;;;;;7.25;2.17;;;17.30;96.20;;;;;;5024239;28;20235;-73
2023/05/18 09:45:52;;;;;;;6.22;1.90;;;17.20;97.00;;;;;;5039014;28;20591;-73
2023/05/18 09:48:18;;;;;;;5.85;1.67;;;17.10;96.60;;;;;;5048044;28;20204;-73
2023/05/18 09:50:44;;;;;;;7.90;1.90;;;17.60;96.40;;;;;;5042969;28;20203;-73
2023/05/18 09:53:11;;;;;;;7.20;1.92;;;17.10;96.10;;;;;;5027420;28;20211;-72
2023/05/18 09:55:44;;;;;;;7.47;1.65;;;17.20;96.70;;;;;;5040577;28;20214;-73
2023/05/18 09:58:09;;;;;;;8.02;3.55;;;17.50;96.70;;;;;;5040916;28;20393;-73
2023/05/18 10:00:45;;;;;;;5.05;1.70;;;18.20;96.80;;;;;;5041810;28;20296;-73
2023/05/18 10:03:22;;;;;;;7.88;2.20;;;18.90;95.30;;;;;;5039049;28;20188;-73
2023/05/18 10:05:49;;;;;;;6.25;1.88;;;18.90;94.40;;;;;;5042441;28;20205;-73
2023/05/18 10:08:15;;;;;;;9.07;2.45;;;19.20;94.10;;;;;;5039768;28;20710;-73
2023/05/18 10:10:46;;;;;;;29.27;18.55;;;18.90;94.80;;;;;;5032090;28;20725;-72
2023/05/18 10:13:18;;;;;;;4.63;1.75;;;19.00;95.00;;;;;;5045366;28;20216;-73
2023/05/18 10:15:53;;;;;;;8.55;3.33;;;18.30;94.80;;;;;;5025958;28;20646;-73
2023/05/18 10:18:23;;;;;;;9.70;4.57;;;18.50;95.30;;;;;;5030644;28;20203;-73
2023/05/18 10:20:51;;;;;;;5.25;2.40;;;18.60;95.20;;;;;;5040867;28;20177;-73
2023/05/18 10:23:18;;;;;;;5.18;1.70;;;19.10;94.80;;;;;;5038917;28;20207;-72
2023/05/18 10:25:46;;;;;;;5.28;1.92;;;19.50;94.00;;;;;;5040177;28;20254;-73
2023/05/18 10:28:18;;;;;;;7.50;2.50;;;19.60;94.20;;;;;;5034164;28;20232;-73
2023/05/18 10:30:46;;;;;;;6.20;2.22;;;19.70;93.30;;;;;;5037611;28;20235;-72
2023/05/18 10:33:13;;;;;;;7.38;2.13;;;19.20;92.60;;;;;;5041052;28;20191;-72
2023/05/18 10:35:39;;;;;;;4.32;1.80;;;19.30;93.00;;;;;;5028120;28;20262;-72
2023/05/18 10:38:06;;;;;;;5.72;2.03;;;19.50;91.70;;;;;;5028307;28;20413;-72
2023/05/18 10:40:34;;;;;;;5.50;1.80;;;18.80;91.60;;;;;;5041496;28;20710;-72
2023/05/18 10:43:02;;;;;;;4.93;1.83;;;18.00;93.10;;;;;;5039500;28;20219;-72
2023/05/18 10:45:32;;;;;;;7.57;2.05;;;18.10;93.70;;;;;;5039265;28;20177;-72
2023/05/18 10:48:00;;;;;;;6.70;2.10;;;17.90;93.60;;;;;;5040453;28;20191;-74
2023/05/18 10:50:26;;;;;;;4.55;1.88;;;17.60;94.30;;;;;;5037558;28;20293;-72
2023/05/18 10:52:53;;;;;;;8.20;2.33;;;17.80;94.70;;;;;;5038931;28;20219;-72
2023/05/18 10:55:19;;;;;;;6.07;2.00;;;17.70;95.20;;;;;;5040219;28;20261;-72
2023/05/18 10:57:52;;;;;;;7.05;1.92;;;17.70;95.30;;;;;;5038775;28;20212;-72
2023/05/18 11:00:19;;;;;;;5.72;1.88;;;18.00;95.20;;;;;;5039694;28;20484;-72
2023/05/18 11:02:45;;;;;;;7.35;1.95;;;17.50;94.30;;;;;;5039171;28;20237;-72
2023/05/18 11:05:11;;;;;;;4.57;1.52;;;17.30;94.40;;;;;;5032772;28;20244;-72
2023/05/18 11:07:37;;;;;;;7.13;2.20;;;17.60;95.10;;;;;;5042128;28;20304;-72
2023/05/18 11:10:08;;;;;;;6.15;1.75;;;17.60;94.70;;;;;;5042774;28;20724;-72
2023/05/18 11:12:37;;;;;;;7.05;1.95;;;17.50;94.70;;;;;;5026434;28;20189;-72
2023/05/18 11:15:04;;;;;;;5.60;1.60;;;17.50;94.60;;;;;;5036077;28;20176;-72
2023/05/18 11:17:30;;;;;;;6.47;1.58;;;17.90;94.60;;;;;;5039752;28;20577;-69
2023/05/18 11:20:06;;;;;;;6.90;1.67;;;17.50;94.60;;;;;;5040853;28;20206;-72
2023/05/18 11:22:47;;;;;;;7.75;1.90;;;17.80;94.80;;;;;;5040341;28;20226;-71
2023/05/18 11:25:25;;;;;;;8.65;2.10;;;17.40;94.70;;;;;;5042181;28;20207;-70
2023/05/18 11:28:04;;;;;;;7.28;2.53;;;16.90;95.00;;;;;;5028288;28;20215;-73
2023/05/18 11:30:50;;;;;;;7.68;1.65;;;17.40;95.40;;;;;;5042950;28;20594;-70
2023/05/18 11:33:29;;;;;;;3.65;1.55;;;18.00;95.10;;;;;;5045364;28;20171;-73
2023/05/18 11:36:00;;;;;;;7.60;1.30;;;18.50;94.30;;;;;;5046329;28;20237;-73
2023/05/18 11:38:51;;;;;;;5.75;1.52;;;18.50;93.20;;;;;;5035207;28;20768;-72
2023/05/18 11:41:41;;;;;;;7.40;1.80;;;18.10;93.60;;;;;;5034029;28;20686;-72
2023/05/18 11:44:23;;;;;;;7.65;2.08;;;17.60;93.50;;;;;;5046169;28;20207;-73
2023/05/18 11:46:53;;;;;;;4.97;1.90;;;17.80;93.90;;;;;;5043326;28;20804;-73
2023/05/18 11:49:35;;;;;;;7.85;1.83;;;17.70;94.30;;;;;;5040154;28;20223;-71
2023/05/18 11:52:22;;;;;;;5.97;1.90;;;17.60;94.00;;;;;;5025604;28;20257;-73
2023/05/18 11:54:53;;;;;;;6.20;1.85;;;17.40;93.40;;;;;;5043812;28;20238;-73
2023/05/18 11:57:33;;;;;;;6.22;1.90;;;17.50;94.30;;;;;;5041280;28;20176;-73
2023/05/18 12:00:00;;;;;;;4.40;1.60;;;17.20;95.00;;;;;;5047824;28;20180;-73
2023/05/18 12:02:27;;;;;;;7.72;2.35;;;17.30;95.20;;;;;;5041216;28;20212;-73
2023/05/18 12:04:55;;;;;;;5.88;1.73;;;17.20;95.00;;;;;;5031551;28;20300;-73
2023/05/18 12:07:23;;;;;;;7.78;1.98;;;17.40;95.00;;;;;;5027162;28;20652;-72
2023/05/18 12:09:49;;;;;;;9.27;1.98;;;17.20;94.20;;;;;;5024465;28;20216;-73
2023/05/18 12:12:18;;;;;;;4.80;1.77;;;17.30;94.70;;;;;;5030479;28;20192;-73
2023/05/18 12:14:48;;;;;;;5.90;1.50;;;17.60;94.80;;;;;;5033238;28;20208;-74
2023/05/18 12:17:14;;;;;;;5.88;1.55;;;17.90;94.70;;;;;;5043614;28;20220;-73
2023/05/18 12:19:43;;;;;;;2.53;1.60;;;18.20;94.10;;;;;;5040755;28;20266;-74
2023/05/18 12:22:11;;;;;;;6.55;1.98;;;18.00;94.50;;;;;;5033309;28;20216;-74
2023/05/18 12:24:38;;;;;;;5.57;1.75;;;17.90;93.90;;;;;;5041685;28;20212;-74
2023/05/18 12:27:06;;;;;;;5.55;1.70;;;17.90;94.50;;;;;;5046498;28;20175;-74
2023/05/18 12:29:33;;;;;;;4.55;1.90;;;18.00;94.50;;;;;;5053378;22;21162;-76
2023/05/18 12:31:58;;;;;;;6.25;1.88;;;17.70;94.80;;;;;;5051444;28;20983;-77
2023/05/18 12:34:28;;;;;;;3.33;1.60;;;17.20;95.30;;;;;;5025831;28;20284;-77
2023/05/18 12:36:54;;;;;;;6.50;1.98;;;17.10;95.30;;;;;;5052197;28;20471;-77
2023/05/18 12:39:21;;;;;;;4.25;1.55;;;17.20;95.90;;;;;;5048818;28;20204;-78
2023/05/18 12:41:47;;;;;;;11.23;6.55;;;17.10;95.20;;;;;;5044961;28;20176;-78
2023/05/18 12:44:13;;;;;;;3.47;1.95;;;17.10;95.60;;;;;;5026358;28;20603;-77
2023/05/18 12:46:41;;;;;;;6.22;1.75;;;17.30;95.50;;;;;;5055692;28;20207;-78
2023/05/18 12:49:08;;;;;;;5.03;1.88;;;17.30;95.40;;;;;;5036380;28;20235;-77